Glendale, Wisconsin
Current Conditions -  °F | °C
As of 2:45 PM on Saturday 22 Nov 2014 (Local Time) from KMWC Reporting Station
Haze Haze  
Wind Chill: 41°   Ceiling: 700
Heat Index: 46°   Visibility: 3mi
Dew Point: 43°   Wind: 10mph
Humidity: 87%   Direction: 220°SW
Pressure: 29.81"   Gusts: 16mph
Location:  43.13°N, 87.93°W
Report Text: KMWC 222045Z AUTO 22009G14KT 3SM BR BKN007 OVC011 08/06 A2981
Loading
Personal Weather Stations






























Interactive Weather Map New forecast layout! Learn more

10-Day Weather Forecast

Advertisements
Track Severe Weather on mobile